Detroit, Michigan
Current Conditions -  °F | °C
As of 3:00 AM on Tuesday 21 Oct 2014 (Local Time) from CYQG Reporting Station
Overcast Overcast  
Wind Chill:   Ceiling: 6400
Heat Index:   Visibility: 15mi
Dew Point:   Wind: 10mph
Humidity: 87%   Direction: 330°NNW
Pressure: 29.88"   Gusts: NA
Location:  42.33°N, 83.05°W
Report Text: CYQG 210700Z 33009KT 15SM FEW018 OVC064 09/07 A2988 RMK SC1SC7 SLP119
Loading
Personal Weather Stations






























Interactive Weather Map
Tropical Storm Tracking
New forecast layout! Learn more

10-Day Weather Forecast

Advertisements
Track Severe Weather on mobile